Time;durP1;ratioP1;P1;durP2;ratioP2;P2;SDS_P1;SDS_P2;PMS_P1;PMS_P2;Temp;Humidity;BMP_temperature;BMP_pressure;BME280_temperature;BME280_humidity;BME280_pressure;Samples;Min_cycle;Max_cycle;Signal;HPM_P1;HPM_P2
2023/07/17 00:01:20;;;;;;;5.78;1.40;;;16.40;99.90;;;;;;5032697;28;20037;-91
2023/07/17 00:03:46;;;;;;;4.40;1.10;;;16.40;99.90;;;;;;4985769;28;20041;-91
2023/07/17 00:06:12;;;;;;;3.97;1.20;;;16.40;99.90;;;;;;5001149;28;20044;-92
2023/07/17 00:08:37;;;;;;;3.47;0.90;;;16.40;99.90;;;;;;5008175;28;20074;-91
2023/07/17 00:11:03;;;;;;;6.50;1.33;;;16.40;99.90;;;;;;5012886;28;20064;-90
2023/07/17 00:13:29;;;;;;;4.05;1.10;;;16.40;99.90;;;;;;5001355;28;20449;-91
2023/07/17 00:15:55;;;;;;;4.80;1.30;;;16.40;99.90;;;;;;5006915;28;20088;-92
2023/07/17 00:18:20;;;;;;;5.38;1.17;;;16.40;99.90;;;;;;4998196;28;20053;-91
2023/07/17 00:20:46;;;;;;;4.75;1.38;;;16.40;99.90;;;;;;5011975;28;20048;-91
2023/07/17 00:23:12;;;;;;;4.03;1.13;;;16.40;99.90;;;;;;5005416;28;20036;-91
2023/07/17 00:25:37;;;;;;;3.20;1.17;;;16.40;99.90;;;;;;4995274;28;20045;-91
2023/07/17 00:28:03;;;;;;;5.45;1.40;;;16.40;99.90;;;;;;5003033;28;20457;-91
2023/07/17 00:30:29;;;;;;;4.80;1.35;;;16.50;99.90;;;;;;4992166;28;20039;-91
2023/07/17 00:32:54;;;;;;;3.72;1.52;;;16.50;99.90;;;;;;5001509;28;20415;-92
2023/07/17 00:35:20;;;;;;;7.28;1.38;;;16.50;99.90;;;;;;4987412;28;20087;-90
2023/07/17 00:37:46;;;;;;;2.45;0.85;;;16.50;99.90;;;;;;4990355;28;20101;-91
2023/07/17 00:40:12;;;;;;;4.55;1.10;;;16.50;99.90;;;;;;4993243;28;20037;-91
2023/07/17 00:42:38;;;;;;;3.17;1.38;;;16.50;99.90;;;;;;5015717;28;20077;-91
2023/07/17 00:45:05;;;;;;;4.18;1.50;;;16.60;99.90;;;;;;5012064;28;20048;-92
2023/07/17 00:47:32;;;;;;;4.63;1.33;;;16.60;99.90;;;;;;5012386;28;20138;-91
2023/07/17 00:49:59;;;;;;;3.78;0.93;;;16.60;99.90;;;;;;5016274;28;20068;-92
2023/07/17 00:52:27;;;;;;;6.00;1.58;;;16.60;99.90;;;;;;5016106;28;20032;-92
2023/07/17 00:54:53;;;;;;;4.18;1.20;;;16.60;99.90;;;;;;5013379;28;20063;-92
2023/07/17 00:57:20;;;;;;;7.63;1.42;;;16.70;99.90;;;;;;4996199;28;20121;-91
2023/07/17 00:59:46;;;;;;;6.53;1.50;;;16.70;99.90;;;;;;5037577;28;20051;-92
2023/07/17 01:02:13;;;;;;;3.75;1.13;;;16.70;99.90;;;;;;5016103;28;20067;-93
2023/07/17 01:04:44;;;;;;;2.50;1.30;;;16.70;99.90;;;;;;4997882;28;20060;-90
2023/07/17 01:07:10;;;;;;;4.90;1.52;;;16.70;99.90;;;;;;5033373;28;20148;-93
2023/07/17 01:09:36;;;;;;;3.28;1.13;;;16.60;99.90;;;;;;5008601;28;20748;-91
2023/07/17 01:12:02;;;;;;;2.78;0.98;;;16.60;99.90;;;;;;5003788;28;20047;-91
2023/07/17 01:14:28;;;;;;;3.30;0.98;;;16.60;99.90;;;;;;4989159;28;20065;-92
2023/07/17 01:16:54;;;;;;;2.88;1.33;;;16.60;99.90;;;;;;5007562;28;20065;-93
2023/07/17 01:19:20;;;;;;;3.15;0.80;;;16.50;99.90;;;;;;4992210;28;20384;-92
2023/07/17 01:21:51;;;;;;;3.55;0.98;;;16.50;99.90;;;;;;5023547;28;20051;-91
2023/07/17 01:24:18;;;;;;;3.28;1.17;;;16.40;99.90;;;;;;5026622;28;20060;-92
2023/07/17 01:26:44;;;;;;;2.72;0.70;;;16.40;99.90;;;;;;4988566;28;20492;-92
2023/07/17 01:29:09;;;;;;;1.75;0.85;;;16.30;99.90;;;;;;4987163;28;20063;-92
2023/07/17 01:31:38;;;;;;;3.75;1.27;;;16.30;99.90;;;;;;4998324;28;20033;-92
2023/07/17 01:34:04;;;;;;;2.08;0.80;;;16.30;99.90;;;;;;5012859;28;20124;-91
2023/07/17 01:36:30;;;;;;;2.35;0.90;;;16.30;99.90;;;;;;5000194;28;20132;-91
2023/07/17 01:38:55;;;;;;;2.63;1.00;;;16.30;99.90;;;;;;5004262;28;20041;-91
2023/07/17 01:41:24;;;;;;;3.45;1.10;;;16.20;99.90;;;;;;4985441;28;20041;-90
2023/07/17 01:43:51;;;;;;;3.05;0.80;;;16.20;99.90;;;;;;5005327;28;20045;-91
2023/07/17 01:46:17;;;;;;;2.22;0.80;;;16.20;99.90;;;;;;5001875;28;20052;-92
2023/07/17 01:48:43;;;;;;;2.50;0.82;;;16.10;99.90;;;;;;4986299;28;20037;-91
2023/07/17 01:51:08;;;;;;;1.98;0.90;;;16.10;99.90;;;;;;5012478;28;20555;-91
2023/07/17 01:53:34;;;;;;;3.38;0.80;;;16.10;99.90;;;;;;4986263;28;20125;-91
2023/07/17 01:56:00;;;;;;;3.38;0.93;;;16.10;99.90;;;;;;4996116;28;20604;-90
2023/07/17 01:58:26;;;;;;;2.00;0.90;;;16.10;99.90;;;;;;5005893;28;20041;-91
2023/07/17 02:00:54;;;;;;;1.67;0.80;;;16.10;99.90;;;;;;4984537;28;20048;-90
2023/07/17 02:03:20;;;;;;;3.72;1.10;;;16.10;99.90;;;;;;5011417;28;20049;-90
2023/07/17 02:05:46;;;;;;;1.55;0.80;;;16.10;99.90;;;;;;5013874;28;20049;-90
2023/07/17 02:08:11;;;;;;;3.10;1.00;;;16.10;99.90;;;;;;5005651;28;20116;-91
2023/07/17 02:10:44;;;;;;;2.88;1.10;;;16.10;99.90;;;;;;5003716;28;20128;-91
2023/07/17 02:13:10;;;;;;;3.75;1.20;;;16.10;99.90;;;;;;5014297;28;20029;-91
2023/07/17 02:15:36;;;;;;;4.63;1.25;;;16.10;99.90;;;;;;4991548;28;20049;-91
2023/07/17 02:18:02;;;;;;;3.55;1.00;;;16.10;99.90;;;;;;5002891;28;20048;-90
2023/07/17 02:20:28;;;;;;;4.20;0.90;;;16.10;99.90;;;;;;5000250;28;20037;-91
2023/07/17 02:22:53;;;;;;;2.72;1.27;;;16.00;99.90;;;;;;4991954;28;20226;-91
2023/07/17 02:25:19;;;;;;;2.60;1.15;;;16.00;99.90;;;;;;5001800;28;20048;-91
2023/07/17 02:27:45;;;;;;;2.55;1.00;;;16.00;99.90;;;;;;4983654;28;20430;-91
2023/07/17 02:30:11;;;;;;;4.25;1.20;;;16.00;99.90;;;;;;4998341;28;20045;-91
2023/07/17 02:32:37;;;;;;;2.63;1.15;;;16.00;99.90;;;;;;5021479;28;20138;-90
2023/07/17 02:35:04;;;;;;;4.72;1.27;;;15.90;99.90;;;;;;5016400;28;20062;-91
2023/07/17 02:37:29;;;;;;;3.13;1.27;;;15.90;99.90;;;;;;5003811;28;20122;-92
2023/07/17 02:39:55;;;;;;;3.00;1.20;;;15.90;99.90;;;;;;5004193;28;20466;-92
2023/07/17 02:42:21;;;;;;;3.22;0.88;;;15.90;99.90;;;;;;5003834;28;20049;-92
2023/07/17 02:44:47;;;;;;;2.83;1.05;;;15.90;99.90;;;;;;5000812;28;20125;-91
2023/07/17 02:47:14;;;;;;;3.38;1.38;;;15.90;99.90;;;;;;4998874;28;20045;-91
2023/07/17 02:49:40;;;;;;;2.85;1.00;;;15.80;99.90;;;;;;4997446;28;20120;-92
2023/07/17 02:52:06;;;;;;;3.60;1.67;;;15.80;99.90;;;;;;5015524;28;20041;-91
2023/07/17 02:54:32;;;;;;;2.42;1.00;;;15.80;99.90;;;;;;5001029;28;20504;-91
2023/07/17 02:56:58;;;;;;;4.47;1.58;;;15.80;99.90;;;;;;5007800;28;20080;-91
2023/07/17 02:59:24;;;;;;;3.00;1.40;;;15.80;99.90;;;;;;5004545;28;20087;-91
2023/07/17 03:01:50;;;;;;;2.95;1.20;;;15.70;99.90;;;;;;5002100;28;20037;-91
2023/07/17 03:04:16;;;;;;;5.22;1.40;;;15.70;99.90;;;;;;5000490;28;20068;-92
2023/07/17 03:06:42;;;;;;;2.97;1.35;;;16.00;99.90;;;;;;4988952;28;20045;-92
2023/07/17 03:09:07;;;;;;;4.00;1.40;;;15.70;99.90;;;;;;4999574;28;20559;-91
2023/07/17 03:11:34;;;;;;;4.07;1.30;;;15.70;99.90;;;;;;5011262;28;20033;-91
2023/07/17 03:13:59;;;;;;;3.50;1.40;;;15.70;99.90;;;;;;5018411;28;20615;-92
2023/07/17 03:16:25;;;;;;;4.07;1.58;;;15.70;99.90;;;;;;5002821;28;20041;-93
2023/07/17 03:18:51;;;;;;;3.72;1.70;;;15.70;99.90;;;;;;5003985;28;20052;-91
2023/07/17 03:21:16;;;;;;;3.38;1.48;;;15.60;99.90;;;;;;5002427;28;20108;-91
2023/07/17 03:23:42;;;;;;;5.22;1.60;;;15.70;99.90;;;;;;4995741;28;20037;-91
2023/07/17 03:26:08;;;;;;;4.47;1.40;;;15.60;99.90;;;;;;4991203;28;20076;-91
2023/07/17 03:28:34;;;;;;;3.63;1.50;;;15.60;99.90;;;;;;5000687;28;20122;-91
2023/07/17 03:31:00;;;;;;;4.40;1.10;;;15.60;99.90;;;;;;4993818;28;20042;-92
2023/07/17 03:33:26;;;;;;;2.78;1.20;;;15.60;99.90;;;;;;4987914;28;20053;-91
2023/07/17 03:35:51;;;;;;;2.33;1.10;;;15.60;99.90;;;;;;4974897;28;20412;-92
2023/07/17 03:38:17;;;;;;;3.45;1.40;;;15.60;99.90;;;;;;4988184;28;20037;-91
2023/07/17 03:40:43;;;;;;;3.97;1.30;;;15.60;99.90;;;;;;4981880;28;20080;-92
2023/07/17 03:43:09;;;;;;;4.40;1.10;;;15.60;99.90;;;;;;4999656;28;20044;-91
2023/07/17 03:45:34;;;;;;;3.60;1.25;;;15.60;99.90;;;;;;4971955;28;20037;-91
2023/07/17 03:48:01;;;;;;;3.60;1.33;;;15.60;99.90;;;;;;4979539;28;20046;-91
2023/07/17 03:50:27;;;;;;;2.13;1.10;;;15.60;99.90;;;;;;4978220;28;20045;-91
2023/07/17 03:52:52;;;;;;;4.45;1.05;;;15.60;99.90;;;;;;4982802;28;20033;-90
2023/07/17 03:55:18;;;;;;;4.40;1.55;;;15.60;99.90;;;;;;4977085;28;20069;-91
2023/07/17 03:57:44;;;;;;;4.43;1.83;;;15.60;99.90;;;;;;4983883;28;20098;-90
2023/07/17 04:00:13;;;;;;;2.33;1.02;;;15.60;99.90;;;;;;4993394;28;20036;-90
2023/07/17 04:02:41;;;;;;;4.53;1.10;;;15.60;99.90;;;;;;4961978;28;20041;-93
2023/07/17 04:05:06;;;;;;;;;;;15.60;99.90;;;;;;4974101;28;20485;-92
2023/07/17 04:07:32;;;;;;;4.60;1.30;;;15.60;99.90;;;;;;5000599;28;19924;-91
2023/07/17 04:09:58;;;;;;;3.42;1.10;;;15.60;99.90;;;;;;4980284;28;20076;-91
2023/07/17 04:12:24;;;;;;;2.47;1.20;;;15.50;99.90;;;;;;4981327;28;20052;-91
2023/07/17 04:14:50;;;;;;;5.07;1.15;;;15.50;99.90;;;;;;4975586;28;20053;-91
2023/07/17 04:17:15;;;;;;;3.88;1.30;;;15.50;99.90;;;;;;4982785;28;20034;-91
2023/07/17 04:19:41;;;;;;;2.70;1.08;;;15.50;99.90;;;;;;4981145;28;20044;-92
2023/07/17 04:22:07;;;;;;;3.42;1.30;;;15.50;99.90;;;;;;4981578;28;20079;-90
2023/07/17 04:24:34;;;;;;;2.15;0.95;;;15.40;99.90;;;;;;4989296;28;20041;-90
2023/07/17 04:26:59;;;;;;;4.13;1.35;;;15.50;99.90;;;;;;4991725;28;20045;-90
2023/07/17 04:29:25;;;;;;;2.45;1.10;;;15.50;99.90;;;;;;4999061;28;20037;-92
2023/07/17 04:31:51;;;;;;;4.18;1.00;;;15.60;99.90;;;;;;5014835;28;20037;-92
2023/07/17 04:34:17;;;;;;;2.75;1.30;;;15.60;99.90;;;;;;5000724;28;20040;-91
2023/07/17 04:36:43;;;;;;;5.27;1.10;;;15.70;99.90;;;;;;5036795;28;20089;-94
2023/07/17 04:39:09;;;;;;;3.20;1.33;;;15.80;99.90;;;;;;5031949;28;20041;-91
2023/07/17 04:41:35;;;;;;;3.08;1.20;;;15.90;99.90;;;;;;5004141;28;20079;-92
2023/07/17 04:44:00;;;;;;;3.65;1.38;;;15.90;99.90;;;;;;5003061;28;20044;-94
2023/07/17 04:46:26;;;;;;;3.00;1.27;;;16.00;99.90;;;;;;5003915;28;20037;-90
2023/07/17 04:48:52;;;;;;;5.82;1.52;;;16.00;99.90;;;;;;4997490;28;20388;-81
2023/07/17 04:51:17;;;;;;;5.00;1.10;;;16.10;99.90;;;;;;4993244;28;20053;-81
2023/07/17 04:53:44;;;;;;;4.13;1.50;;;16.20;99.90;;;;;;4983084;28;20048;-80
2023/07/17 04:56:09;;;;;;;3.92;1.40;;;16.20;99.90;;;;;;4997225;28;20120;-81
2023/07/17 04:58:35;;;;;;;4.80;1.65;;;16.30;99.90;;;;;;4998836;28;20151;-81
2023/07/17 05:01:05;;;;;;;4.03;1.33;;;16.40;99.90;;;;;;5029890;28;20048;-80
2023/07/17 05:03:31;;;;;;;4.88;1.30;;;16.70;99.90;;;;;;5009369;28;20055;-80
2023/07/17 05:05:57;;;;;;;3.95;1.30;;;17.00;99.90;;;;;;4990365;28;20090;-81
2023/07/17 05:08:25;;;;;;;4.50;1.25;;;17.10;99.90;;;;;;5010387;28;20041;-80
2023/07/17 05:10:59;;;;;;;4.15;1.35;;;17.20;99.90;;;;;;5002043;28;20057;-81
2023/07/17 05:13:26;;;;;;;3.40;1.35;;;17.30;99.90;;;;;;5008088;28;20045;-80
2023/07/17 05:15:52;;;;;;;2.97;1.20;;;17.40;99.90;;;;;;5006972;28;20045;-81
2023/07/17 05:18:18;;;;;;;2.90;1.15;;;17.50;99.90;;;;;;4980803;28;20084;-82
2023/07/17 05:20:44;;;;;;;3.13;1.15;;;17.60;99.90;;;;;;4987778;28;20076;-81
2023/07/17 05:23:11;;;;;;;6.03;1.58;;;17.60;99.90;;;;;;4999269;28;20048;-80
2023/07/17 05:25:37;;;;;;;3.00;1.20;;;17.60;99.90;;;;;;5014252;28;20047;-82
2023/07/17 05:28:04;;;;;;;3.58;1.27;;;17.70;99.90;;;;;;4983400;28;20044;-82
2023/07/17 05:30:33;;;;;;;3.78;1.10;;;17.80;99.90;;;;;;4988858;28;20476;-81
2023/07/17 05:32:59;;;;;;;7.18;1.50;;;17.90;99.90;;;;;;5001613;28;20116;-82
2023/07/17 05:35:25;;;;;;;3.83;1.40;;;17.90;99.90;;;;;;4997395;28;20079;-82
2023/07/17 05:37:52;;;;;;;3.58;1.27;;;18.00;99.90;;;;;;5009917;28;20080;-82
2023/07/17 05:40:18;;;;;;;5.28;1.23;;;18.20;99.90;;;;;;5002680;28;20472;-81
2023/07/17 05:42:46;;;;;;;4.45;1.45;;;18.90;99.90;;;;;;5000897;28;20045;-81
2023/07/17 05:45:11;;;;;;;3.83;1.40;;;19.90;99.90;;;;;;4992520;28;20594;-81
2023/07/17 05:47:38;;;;;;;6.00;1.73;;;21.00;99.90;;;;;;5021728;28;20128;-82
2023/07/17 05:50:04;;;;;;;4.28;1.40;;;22.00;99.90;;;;;;4971497;28;20033;-83
2023/07/17 05:52:30;;;;;;;7.60;1.85;;;22.80;99.90;;;;;;5009656;28;20029;-86
2023/07/17 05:54:56;;;;;;;3.88;1.40;;;23.50;99.90;;;;;;5009906;28;20114;-86
2023/07/17 05:57:22;;;;;;;4.03;1.70;;;24.10;99.90;;;;;;5001065;28;20029;-87
2023/07/17 05:59:47;;;;;;;3.63;1.45;;;24.70;99.90;;;;;;4982899;28;20048;-87
2023/07/17 06:02:14;;;;;;;3.40;1.20;;;25.20;99.90;;;;;;5008426;28;20038;-87
2023/07/17 06:04:41;;;;;;;3.30;1.63;;;25.60;99.90;;;;;;5019641;28;20329;-89
2023/07/17 06:07:06;;;;;;;4.38;1.60;;;25.70;99.90;;;;;;5000378;28;20029;-87
2023/07/17 06:09:34;;;;;;;3.40;1.50;;;25.40;99.90;;;;;;4981870;28;20133;-86
2023/07/17 06:12:01;;;;;;;5.70;1.50;;;25.60;99.90;;;;;;5006645;28;20128;-86
2023/07/17 06:14:26;;;;;;;6.95;1.73;;;26.10;99.90;;;;;;5031262;28;20491;-86
2023/07/17 06:16:52;;;;;;;4.47;1.50;;;26.20;99.90;;;;;;4997969;28;20045;-89
2023/07/17 06:19:18;;;;;;;5.07;1.93;;;26.40;99.90;;;;;;5017406;28;20033;-85
2023/07/17 06:21:44;;;;;;;4.10;1.70;;;26.60;99.90;;;;;;5013750;28;20076;-84
2023/07/17 06:24:10;;;;;;;4.88;1.80;;;27.10;99.90;;;;;;5004099;28;20387;-87
2023/07/17 06:26:36;;;;;;;3.23;1.30;;;27.20;99.90;;;;;;5010301;28;20057;-87
2023/07/17 06:29:05;;;;;;;4.10;1.67;;;27.70;99.90;;;;;;5006391;28;20033;-87
2023/07/17 06:31:31;;;;;;;6.50;1.95;;;28.10;99.90;;;;;;5006102;28;20041;-86
2023/07/17 06:33:57;;;;;;;4.40;1.67;;;28.10;99.90;;;;;;4994919;28;20392;-88
2023/07/17 06:36:22;;;;;;;3.23;1.67;;;27.70;99.90;;;;;;5007067;28;20040;-87
2023/07/17 06:38:48;;;;;;;3.87;1.57;;;27.70;99.90;;;;;;5003832;28;20113;-86
2023/07/17 06:41:14;;;;;;;4.13;1.53;;;27.10;99.90;;;;;;5001031;28;20091;-87
2023/07/17 06:43:40;;;;;;;5.77;2.00;;;26.20;99.90;;;;;;4999463;28;20036;-86
2023/07/17 06:46:06;;;;;;;4.40;2.20;;;25.10;99.90;;;;;;5001920;28;21347;-87
2023/07/17 06:48:32;;;;;;;5.87;1.97;;;24.20;99.90;;;;;;4987091;28;20034;-86
2023/07/17 06:50:57;;;;;;;4.83;1.70;;;23.50;99.90;;;;;;5006871;28;20041;-87
2023/07/17 06:53:23;;;;;;;6.03;2.00;;;23.10;99.90;;;;;;4989830;28;20491;-85
2023/07/17 06:56:01;;;;;;;5.80;2.10;;;22.60;99.90;;;;;;5002513;28;21052;-85
2023/07/17 06:58:27;;;;;;;5.93;1.98;;;22.60;99.90;;;;;;5013153;28;20083;-87
2023/07/17 07:00:57;;;;;;;6.13;2.17;;;22.70;99.90;;;;;;5036326;28;20072;-87
2023/07/17 07:03:26;;;;;;;4.65;1.88;;;22.60;99.90;;;;;;5007685;28;20040;-87
2023/07/17 07:05:56;;;;;;;6.40;2.05;;;22.80;99.90;;;;;;5021604;28;20567;-87
2023/07/17 07:08:24;;;;;;;3.63;1.83;;;23.20;99.90;;;;;;5016067;28;20116;-88
2023/07/17 07:10:51;;;;;;;5.07;2.03;;;23.50;99.90;;;;;;5005224;28;20040;-88
2023/07/17 07:13:24;;;;;;;3.17;1.63;;;24.00;99.90;;;;;;5015528;28;20029;-88
2023/07/17 07:15:53;;;;;;;5.72;2.30;;;24.00;99.90;;;;;;5026434;28;20033;-86
2023/07/17 07:18:19;;;;;;;3.65;1.67;;;23.40;99.90;;;;;;5034609;28;20381;-84
2023/07/17 07:20:46;;;;;;;;;;;22.70;99.90;;;;;;5000945;28;20099;-87
2023/07/17 07:23:11;;;;;;;4.75;2.00;;;22.00;99.90;;;;;;5030976;28;19937;-88
2023/07/17 07:25:37;;;;;;;5.17;2.10;;;21.70;99.90;;;;;;5041552;28;20052;-87
2023/07/17 07:28:04;;;;;;;4.13;1.90;;;21.40;99.90;;;;;;5033066;28;20025;-86
2023/07/17 07:30:30;;;;;;;7.68;2.10;;;21.10;99.90;;;;;;5037837;28;20013;-86
2023/07/17 07:32:58;;;;;;;4.00;1.80;;;20.80;99.90;;;;;;5024044;28;20049;-86
2023/07/17 07:35:24;;;;;;;3.22;1.88;;;20.50;99.90;;;;;;5065659;28;20474;-90
2023/07/17 07:37:50;;;;;;;6.00;1.90;;;20.50;99.90;;;;;;5007469;28;20036;-89
2023/07/17 07:40:19;;;;;;;3.90;1.43;;;20.30;99.90;;;;;;5027990;28;20032;-90
2023/07/17 07:42:45;;;;;;;4.55;1.98;;;20.10;99.90;;;;;;5025495;28;20033;-88
2023/07/17 07:45:11;;;;;;;3.58;1.58;;;19.80;99.90;;;;;;5023949;28;20049;-88
2023/07/17 07:47:41;;;;;;;4.43;1.58;;;19.70;99.90;;;;;;5030657;28;20481;-88
2023/07/17 07:50:08;;;;;;;4.25;1.60;;;19.50;99.90;;;;;;5018130;28;20103;-89
2023/07/17 07:52:34;;;;;;;5.78;1.92;;;19.30;99.90;;;;;;5032933;28;20033;-88
2023/07/17 07:55:00;;;;;;;3.90;1.63;;;19.30;99.90;;;;;;5000917;28;20041;-88
2023/07/17 07:57:25;;;;;;;3.33;1.75;;;19.20;99.90;;;;;;5040581;28;20037;-90
2023/07/17 07:59:51;;;;;;;5.00;1.70;;;19.20;99.90;;;;;;5002401;28;20045;-88
2023/07/17 08:02:17;;;;;;;3.55;1.58;;;19.60;99.90;;;;;;5005608;28;20075;-89
2023/07/17 08:04:44;;;;;;;4.13;1.67;;;20.30;99.90;;;;;;5025457;28;20552;-90
2023/07/17 08:07:10;;;;;;;2.88;1.52;;;20.80;99.90;;;;;;5002704;28;21032;-89
2023/07/17 08:09:36;;;;;;;3.70;1.55;;;20.80;99.90;;;;;;5011332;28;20399;-89
2023/07/17 08:12:01;;;;;;;2.97;1.42;;;20.90;99.90;;;;;;5003076;28;20033;-87
2023/07/17 08:14:27;;;;;;;3.58;1.35;;;21.00;99.90;;;;;;4991264;28;20096;-87
2023/07/17 08:16:53;;;;;;;3.58;1.45;;;21.10;99.90;;;;;;4994634;28;20072;-89
2023/07/17 08:19:20;;;;;;;3.35;1.60;;;21.00;99.90;;;;;;5002577;28;20044;-88
2023/07/17 08:21:45;;;;;;;3.40;1.40;;;21.20;99.90;;;;;;4999120;28;20084;-89
2023/07/17 08:24:12;;;;;;;5.25;2.08;;;21.40;99.90;;;;;;5009213;28;20064;-90
2023/07/17 08:26:38;;;;;;;3.83;1.85;;;21.70;99.90;;;;;;5005098;28;20042;-90
2023/07/17 08:29:06;;;;;;;4.68;1.88;;;21.80;99.90;;;;;;5002259;28;20052;-88
2023/07/17 08:31:32;;;;;;;5.43;1.60;;;22.00;99.90;;;;;;5030646;28;20076;-88
2023/07/17 08:34:00;;;;;;;4.87;1.67;;;22.20;99.90;;;;;;5019985;28;20038;-89
2023/07/17 08:36:26;;;;;;;3.70;1.50;;;22.30;99.90;;;;;;5030683;28;20490;-89
2023/07/17 08:38:52;;;;;;;4.93;1.73;;;22.40;99.90;;;;;;5057345;28;20052;-88
2023/07/17 08:41:18;;;;;;;4.17;1.90;;;22.40;99.90;;;;;;5037193;28;20025;-88
2023/07/17 08:43:45;;;;;;;3.58;1.45;;;22.50;99.90;;;;;;5040295;28;20036;-88
2023/07/17 08:46:12;;;;;;;3.53;1.70;;;22.60;99.90;;;;;;5030656;28;20063;-89
2023/07/17 08:48:43;;;;;;;3.55;1.40;;;22.50;99.90;;;;;;5019765;28;20403;-89
2023/07/17 08:51:14;;;;;;;3.58;1.63;;;22.60;99.90;;;;;;5030187;28;20029;-88
2023/07/17 08:53:43;;;;;;;5.57;1.90;;;22.70;99.90;;;;;;5002773;28;20496;-90
2023/07/17 08:56:13;;;;;;;3.50;1.30;;;22.40;99.90;;;;;;5029075;28;20037;-87
2023/07/17 08:58:40;;;;;;;3.22;1.58;;;22.00;99.90;;;;;;5007713;28;20501;-87
2023/07/17 09:01:07;;;;;;;4.32;1.27;;;21.50;99.90;;;;;;5028970;28;20041;-90
2023/07/17 09:03:34;;;;;;;5.22;1.80;;;21.20;99.90;;;;;;5035624;28;20076;-90
2023/07/17 09:06:03;;;;;;;3.15;1.50;;;21.00;99.90;;;;;;5029546;28;20051;-90
2023/07/17 09:08:29;;;;;;;3.45;1.60;;;21.10;99.90;;;;;;5021478;28;20033;-87
2023/07/17 09:11:06;;;;;;;4.75;1.60;;;21.60;99.90;;;;;;5047908;28;20103;-92
2023/07/17 09:13:39;;;;;;;4.80;1.52;;;22.00;99.90;;;;;;5007512;28;20051;-91
2023/07/17 09:16:15;;;;;;;3.13;1.35;;;22.30;99.90;;;;;;5008656;28;20056;-90
2023/07/17 09:18:41;;;;;;;3.10;1.10;;;22.40;99.90;;;;;;5039704;28;20048;-90
2023/07/17 09:21:08;;;;;;;4.95;1.02;;;22.30;99.90;;;;;;5023122;28;20040;-89
2023/07/17 09:23:41;;;;;;;4.17;1.20;;;22.10;99.90;;;;;;5018810;28;20044;-91
2023/07/17 09:26:06;;;;;;;5.53;1.25;;;22.00;99.90;;;;;;5022899;28;20828;-90
2023/07/17 09:28:46;;;;;;;2.30;1.00;;;22.00;99.90;;;;;;5013460;28;20037;-89
2023/07/17 09:31:11;;;;;;;2.65;1.10;;;22.10;99.90;;;;;;5015331;28;20520;-90
2023/07/17 09:33:37;;;;;;;3.60;1.30;;;22.20;99.90;;;;;;5010823;28;20040;-91
2023/07/17 09:36:08;;;;;;;2.47;0.90;;;22.20;99.90;;;;;;5011475;28;20773;-92
2023/07/17 09:38:34;;;;;;;3.15;1.13;;;22.30;99.90;;;;;;5031930;28;20037;-95
2023/07/17 09:41:00;;;;;;;3.38;1.00;;;22.30;99.90;;;;;;5019318;28;20273;-96
2023/07/17 09:43:32;;;;;;;2.97;0.95;;;22.30;99.90;;;;;;5009184;28;20048;-96
2023/07/17 09:46:00;;;;;;;2.78;1.00;;;22.20;99.90;;;;;;5032818;28;20087;-96
2023/07/17 09:48:27;;;;;;;3.25;0.90;;;22.20;99.90;;;;;;5049292;28;20025;-96
2023/07/17 09:51:02;;;;;;;4.40;1.30;;;22.20;99.90;;;;;;5025959;28;20033;-96
2023/07/17 09:53:34;;;;;;;1.73;0.80;;;22.20;99.90;;;;;;5028503;28;20041;-96
2023/07/17 09:56:02;;;;;;;3.90;1.00;;;22.30;99.90;;;;;;4999053;28;20037;-96
2023/07/17 09:58:33;;;;;;;1.80;0.90;;;22.40;99.90;;;;;;5013224;28;20037;-96
2023/07/17 10:01:08;;;;;;;2.50;0.85;;;22.60;99.90;;;;;;5017868;28;20052;-96
2023/07/17 10:03:38;;;;;;;2.53;0.90;;;22.60;99.90;;;;;;5029596;28;20035;-96
2023/07/17 10:06:04;;;;;;;2.50;1.10;;;22.60;99.90;;;;;;5045116;28;20063;-96
2023/07/17 10:08:33;;;;;;;2.78;1.13;;;22.30;99.90;;;;;;5023569;28;20037;-96
2023/07/17 10:10:59;;;;;;;4.78;1.05;;;22.40;99.90;;;;;;5006273;28;20096;-96
2023/07/17 10:13:26;;;;;;;4.28;1.27;;;22.20;99.90;;;;;;5013362;28;20080;-95
2023/07/17 10:15:52;;;;;;;2.55;0.90;;;22.40;99.90;;;;;;5030668;28;20044;-96
2023/07/17 10:18:17;;;;;;;3.38;1.00;;;22.40;99.90;;;;;;5019774;28;20048;-96
2023/07/17 10:20:54;;;;;;;2.50;0.90;;;22.50;99.90;;;;;;5036061;28;20044;-96
2023/07/17 10:23:26;;;;;;;2.78;1.00;;;22.50;99.90;;;;;;5030118;28;20048;-96
2023/07/17 10:26:09;;;;;;;2.72;1.08;;;22.40;99.90;;;;;;4990404;28;20092;-96
2023/07/17 10:28:42;;;;;;;1.70;0.77;;;22.20;99.90;;;;;;5018554;28;20053;-96
2023/07/17 10:31:19;;;;;;;4.18;1.30;;;22.30;99.90;;;;;;5018689;28;20045;-96
2023/07/17 10:34:14;;;;;;;1.95;0.90;;;22.30;99.90;;;;;;5026110;28;20097;-96
2023/07/17 10:36:51;;;;;;;4.32;1.17;;;22.40;99.90;;;;;;5042445;28;20060;-96
2023/07/17 10:39:25;;;;;;;2.50;1.00;;;22.40;99.90;;;;;;5043019;28;20041;-96
2023/07/17 10:41:51;;;;;;;5.88;1.10;;;22.20;99.90;;;;;;5034976;28;20049;-96
2023/07/17 10:44:19;;;;;;;2.40;0.90;;;22.30;99.90;;;;;;4995447;28;20076;-96
2023/07/17 10:46:46;;;;;;;2.83;1.20;;;22.40;99.90;;;;;;5022499;28;20048;-96
2023/07/17 10:49:13;;;;;;;3.33;0.80;;;22.40;99.90;;;;;;5031143;28;20571;-96
2023/07/17 10:51:47;;;;;;;3.88;1.00;;;22.40;99.90;;;;;;5031875;28;20045;-96
2023/07/17 10:54:15;;;;;;;3.60;1.10;;;22.40;99.90;;;;;;5035940;28;20036;-96
2023/07/17 10:56:45;;;;;;;4.63;0.90;;;22.40;99.90;;;;;;5006983;28;20045;-96
2023/07/17 10:59:12;;;;;;;1.85;0.90;;;22.20;99.90;;;;;;5021155;28;20051;-96
2023/07/17 11:01:38;;;;;;;2.55;0.90;;;21.90;99.90;;;;;;5030543;28;20049;-96
2023/07/17 11:04:10;;;;;;;2.10;0.95;;;21.80;99.90;;;;;;5021296;28;20121;-96
2023/07/17 11:06:36;;;;;;;2.13;0.90;;;21.70;99.90;;;;;;5023978;28;20437;-96
2023/07/17 11:09:03;;;;;;;3.80;1.30;;;21.80;99.90;;;;;;5008303;28;20045;-96
2023/07/17 11:11:32;;;;;;;2.45;0.80;;;22.00;99.90;;;;;;5026544;28;20040;-96
2023/07/17 11:14:01;;;;;;;1.90;0.95;;;22.10;99.90;;;;;;5028323;28;20151;-95
2023/07/17 11:16:27;;;;;;;3.28;0.95;;;22.20;99.90;;;;;;5019802;28;20041;-96
2023/07/17 11:18:55;;;;;;;2.53;0.98;;;22.40;99.90;;;;;;5017479;28;20114;-95
2023/07/17 11:21:26;;;;;;;2.83;1.00;;;22.50;99.90;;;;;;5017600;28;20045;-95
2023/07/17 11:23:54;;;;;;;1.73;0.90;;;22.70;99.90;;;;;;5029013;28;20083;-96
2023/07/17 11:26:25;;;;;;;2.88;1.10;;;22.80;99.90;;;;;;5025855;28;20381;-95
2023/07/17 11:28:55;;;;;;;2.67;1.10;;;22.80;99.90;;;;;;4996829;28;20042;-96
2023/07/17 11:31:24;;;;;;;3.05;1.20;;;24.10;99.90;;;;;;5021760;28;20041;-96
2023/07/17 11:34:07;;;;;;;2.50;0.80;;;22.90;99.90;;;;;;5023484;28;20100;-96
2023/07/17 11:36:53;;;;;;;1.38;0.82;;;22.70;99.90;;;;;;5043085;28;20036;-95
2023/07/17 11:39:20;;;;;;;2.53;1.10;;;22.60;99.90;;;;;;5025391;28;20056;-95
2023/07/17 11:41:52;;;;;;;2.65;1.02;;;22.50;99.90;;;;;;5023127;28;20053;-96
2023/07/17 11:44:32;;;;;;;3.50;0.80;;;22.30;99.90;;;;;;5015252;28;20075;-96
2023/07/17 11:47:05;;;;;;;2.60;0.90;;;22.20;99.90;;;;;;5035505;28;20037;-96
2023/07/17 11:49:42;;;;;;;1.80;1.10;;;22.00;99.90;;;;;;5053016;28;20037;-96
2023/07/17 11:52:19;;;;;;;2.78;1.02;;;21.90;99.90;;;;;;5049582;28;20024;-95
2023/07/17 11:54:47;;;;;;;1.42;0.88;;;21.90;99.90;;;;;;5037689;28;20052;-96
2023/07/17 11:57:13;;;;;;;2.08;1.13;;;21.90;99.90;;;;;;5009833;28;20021;-96
2023/07/17 11:59:44;;;;;;;5.07;0.95;;;21.80;99.90;;;;;;5023491;28;20041;-96
2023/07/17 12:02:10;;;;;;;3.22;1.02;;;21.80;99.90;;;;;;5033771;28;20037;-96
2023/07/17 12:04:38;;;;;;;1.70;0.80;;;22.00;99.90;;;;;;5024931;28;20041;-96
2023/07/17 12:07:05;;;;;;;2.50;1.00;;;22.20;99.90;;;;;;5021163;28;20036;-96
2023/07/17 12:09:30;;;;;;;1.77;0.80;;;22.20;99.90;;;;;;5018578;28;20040;-95
2023/07/17 12:11:57;;;;;;;2.33;0.90;;;22.30;99.90;;;;;;5027639;28;20033;-96
2023/07/17 12:14:26;;;;;;;2.95;0.93;;;22.20;99.90;;;;;;5014533;28;20058;-95
2023/07/17 12:16:51;;;;;;;2.73;1.00;;;22.10;99.90;;;;;;5000847;28;20037;-96
2023/07/17 12:19:18;;;;;;;1.92;0.95;;;22.00;99.90;;;;;;5014955;28;20190;-96
2023/07/17 12:21:44;;;;;;;;;;;21.80;99.90;;;;;;4996628;28;20074;-96
2023/07/17 12:24:13;;;;;;;;;;;21.60;99.90;;;;;;5018308;28;19917;-96
2023/07/17 12:26:38;;;;;;;1.88;0.98;;;21.10;99.90;;;;;;5015319;28;20011;-95
2023/07/17 12:29:11;;;;;;;2.35;1.00;;;20.90;99.90;;;;;;4987005;28;20090;-96
2023/07/17 12:31:37;;;;;;;2.45;1.00;;;20.80;99.90;;;;;;4998307;28;20189;-96
2023/07/17 12:34:03;;;;;;;3.13;1.20;;;20.80;99.90;;;;;;4977885;28;20073;-96
2023/07/17 12:36:29;;;;;;;2.20;0.98;;;21.00;99.90;;;;;;4986362;28;20495;-95
2023/07/17 12:39:14;;;;;;;2.88;1.00;;;21.10;99.90;;;;;;4977302;28;20042;-95
2023/07/17 12:41:42;;;;;;;2.95;1.00;;;21.30;99.90;;;;;;5018782;28;20052;-96
2023/07/17 12:44:09;;;;;;;2.70;1.13;;;21.40;99.90;;;;;;4991751;28;20044;-96
2023/07/17 12:46:35;;;;;;;2.30;0.98;;;21.50;99.90;;;;;;4985159;28;20033;-96
2023/07/17 12:49:01;;;;;;;1.80;0.75;;;21.50;99.90;;;;;;4975169;28;20072;-96